Terminal Aerodrome Forecast
Issued by NWS Louisville, KY

Home | Current Version | Previous Version | Text Only | Print | Product List | Glossary On
Versions: 1 2 3 4 5 6 7 8 9 10 11 12 13
746
FTUS43 KLMK 211720
TAFSDF
TAF
KSDF 211720Z 2118/2224 23015G23KT P6SM FEW250
     FM220000 25009KT P6SM SCT250
     FM220300 30010KT P6SM SCT040 OVC250
     FM220600 33008KT P6SM FEW060 SCT120=

USA.gov is the U.S. government's official web portal to all federal, state and local government web resources and services.